sensor_id;sensor_type;location;lat;lon;timestamp;P1;durP1;ratioP1;P2;durP2;ratioP2
71154;SDS011;59375;53.216;5.728;2022-08-19T00:02:21;8.00;;;6.25;;
71154;SDS011;59375;53.216;5.728;2022-08-19T00:04:47;10.48;;;6.03;;
71154;SDS011;59375;53.216;5.728;2022-08-19T00:07:17;9.73;;;6.43;;
71154;SDS011;59375;53.216;5.728;2022-08-19T00:09:44;8.68;;;6.05;;
71154;SDS011;59375;53.216;5.728;2022-08-19T00:12:09;11.07;;;6.45;;
71154;SDS011;59375;53.216;5.728;2022-08-19T00:14:35;9.95;;;6.50;;
71154;SDS011;59375;53.216;5.728;2022-08-19T00:17:03;11.43;;;7.05;;
71154;SDS011;59375;53.216;5.728;2022-08-19T00:19:29;9.00;;;6.72;;
71154;SDS011;59375;53.216;5.728;2022-08-19T00:21:56;8.95;;;6.13;;
71154;SDS011;59375;53.216;5.728;2022-08-19T00:24:21;9.65;;;6.30;;
71154;SDS011;59375;53.216;5.728;2022-08-19T00:26:47;9.05;;;6.32;;
71154;SDS011;59375;53.216;5.728;2022-08-19T00:29:14;8.95;;;6.50;;
71154;SDS011;59375;53.216;5.728;2022-08-19T00:31:42;9.30;;;5.82;;
71154;SDS011;59375;53.216;5.728;2022-08-19T00:34:08;11.20;;;6.47;;
71154;SDS011;59375;53.216;5.728;2022-08-19T00:36:34;8.75;;;6.25;;
71154;SDS011;59375;53.216;5.728;2022-08-19T00:39:00;9.70;;;6.60;;
71154;SDS011;59375;53.216;5.728;2022-08-19T00:41:26;10.38;;;6.22;;
71154;SDS011;59375;53.216;5.728;2022-08-19T00:44:04;9.85;;;6.82;;
71154;SDS011;59375;53.216;5.728;2022-08-19T00:46:31;9.88;;;6.75;;
71154;SDS011;59375;53.216;5.728;2022-08-19T00:48:58;12.05;;;6.20;;
71154;SDS011;59375;53.216;5.728;2022-08-19T00:51:27;10.35;;;6.85;;
71154;SDS011;59375;53.216;5.728;2022-08-19T00:53:55;11.27;;;6.60;;
71154;SDS011;59375;53.216;5.728;2022-08-19T00:56:23;9.05;;;6.53;;
71154;SDS011;59375;53.216;5.728;2022-08-19T00:58:51;8.27;;;6.57;;
71154;SDS011;59375;53.216;5.728;2022-08-19T01:01:17;11.27;;;7.35;;
71154;SDS011;59375;53.216;5.728;2022-08-19T01:03:42;12.10;;;7.90;;
71154;SDS011;59375;53.216;5.728;2022-08-19T01:06:08;9.73;;;7.60;;
71154;SDS011;59375;53.216;5.728;2022-08-19T01:08:33;12.10;;;7.50;;
71154;SDS011;59375;53.216;5.728;2022-08-19T01:10:59;9.25;;;7.60;;
71154;SDS011;59375;53.216;5.728;2022-08-19T01:13:26;13.07;;;7.78;;
71154;SDS011;59375;53.216;5.728;2022-08-19T01:16:04;9.98;;;7.38;;
71154;SDS011;59375;53.216;5.728;2022-08-19T01:18:32;12.77;;;7.68;;
71154;SDS011;59375;53.216;5.728;2022-08-19T01:21:02;11.30;;;7.82;;
71154;SDS011;59375;53.216;5.728;2022-08-19T01:23:34;9.20;;;7.40;;
71154;SDS011;59375;53.216;5.728;2022-08-19T01:26:13;10.98;;;7.72;;
71154;SDS011;59375;53.216;5.728;2022-08-19T01:28:40;10.23;;;7.55;;
71154;SDS011;59375;53.216;5.728;2022-08-19T01:31:09;9.93;;;8.13;;
71154;SDS011;59375;53.216;5.728;2022-08-19T01:33:39;10.90;;;7.75;;
71154;SDS011;59375;53.216;5.728;2022-08-19T01:36:11;11.32;;;8.48;;
71154;SDS011;59375;53.216;5.728;2022-08-19T01:38:56;11.13;;;8.00;;
71154;SDS011;59375;53.216;5.728;2022-08-19T01:41:23;10.38;;;7.78;;
71154;SDS011;59375;53.216;5.728;2022-08-19T01:43:49;11.75;;;8.02;;
71154;SDS011;59375;53.216;5.728;2022-08-19T01:46:16;11.57;;;8.32;;
71154;SDS011;59375;53.216;5.728;2022-08-19T01:48:42;11.07;;;8.30;;
71154;SDS011;59375;53.216;5.728;2022-08-19T01:51:10;12.90;;;8.70;;
71154;SDS011;59375;53.216;5.728;2022-08-19T01:53:37;10.70;;;8.80;;
71154;SDS011;59375;53.216;5.728;2022-08-19T01:56:03;10.80;;;8.55;;
71154;SDS011;59375;53.216;5.728;2022-08-19T01:58:32;12.48;;;8.73;;
71154;SDS011;59375;53.216;5.728;2022-08-19T02:01:05;12.25;;;9.02;;
71154;SDS011;59375;53.216;5.728;2022-08-19T02:03:32;12.13;;;9.02;;
71154;SDS011;59375;53.216;5.728;2022-08-19T02:05:59;14.85;;;9.38;;
71154;SDS011;59375;53.216;5.728;2022-08-19T02:08:27;12.98;;;9.10;;
71154;SDS011;59375;53.216;5.728;2022-08-19T02:10:53;12.40;;;9.85;;
71154;SDS011;59375;53.216;5.728;2022-08-19T02:13:19;10.40;;;9.30;;
71154;SDS011;59375;53.216;5.728;2022-08-19T02:15:45;11.00;;;9.00;;
71154;SDS011;59375;53.216;5.728;2022-08-19T02:18:10;11.68;;;9.18;;
71154;SDS011;59375;53.216;5.728;2022-08-19T02:20:37;11.38;;;8.98;;
71154;SDS011;59375;53.216;5.728;2022-08-19T02:23:04;11.65;;;8.82;;
71154;SDS011;59375;53.216;5.728;2022-08-19T02:25:30;11.23;;;9.02;;
71154;SDS011;59375;53.216;5.728;2022-08-19T02:27:56;12.38;;;9.05;;
71154;SDS011;59375;53.216;5.728;2022-08-19T02:30:21;12.98;;;8.63;;
71154;SDS011;59375;53.216;5.728;2022-08-19T02:32:47;12.55;;;8.93;;
71154;SDS011;59375;53.216;5.728;2022-08-19T02:35:13;11.93;;;9.63;;
71154;SDS011;59375;53.216;5.728;2022-08-19T02:37:40;12.25;;;9.50;;
71154;SDS011;59375;53.216;5.728;2022-08-19T02:40:25;12.70;;;9.35;;
71154;SDS011;59375;53.216;5.728;2022-08-19T02:42:51;13.68;;;8.98;;
71154;SDS011;59375;53.216;5.728;2022-08-19T02:45:16;9.85;;;8.60;;
71154;SDS011;59375;53.216;5.728;2022-08-19T02:47:42;11.93;;;9.38;;
71154;SDS011;59375;53.216;5.728;2022-08-19T02:50:08;10.60;;;9.02;;
71154;SDS011;59375;53.216;5.728;2022-08-19T02:52:33;11.65;;;9.38;;
71154;SDS011;59375;53.216;5.728;2022-08-19T02:55:00;13.13;;;9.32;;
71154;SDS011;59375;53.216;5.728;2022-08-19T02:57:26;11.85;;;9.48;;
71154;SDS011;59375;53.216;5.728;2022-08-19T02:59:52;12.18;;;9.52;;
71154;SDS011;59375;53.216;5.728;2022-08-19T03:02:18;12.32;;;10.13;;
71154;SDS011;59375;53.216;5.728;2022-08-19T03:04:44;12.15;;;9.30;;
71154;SDS011;59375;53.216;5.728;2022-08-19T03:07:12;11.68;;;9.50;;
71154;SDS011;59375;53.216;5.728;2022-08-19T03:09:39;13.82;;;9.70;;
71154;SDS011;59375;53.216;5.728;2022-08-19T03:12:05;13.50;;;10.10;;
71154;SDS011;59375;53.216;5.728;2022-08-19T03:14:31;11.63;;;9.50;;
71154;SDS011;59375;53.216;5.728;2022-08-19T03:16:58;13.07;;;9.88;;
71154;SDS011;59375;53.216;5.728;2022-08-19T03:19:24;12.98;;;9.50;;
71154;SDS011;59375;53.216;5.728;2022-08-19T03:21:50;11.70;;;10.35;;
71154;SDS011;59375;53.216;5.728;2022-08-19T03:24:16;11.63;;;9.98;;
71154;SDS011;59375;53.216;5.728;2022-08-19T03:26:45;16.60;;;10.68;;
71154;SDS011;59375;53.216;5.728;2022-08-19T03:29:13;11.55;;;9.65;;
71154;SDS011;59375;53.216;5.728;2022-08-19T03:31:40;12.50;;;9.55;;
71154;SDS011;59375;53.216;5.728;2022-08-19T03:34:07;12.98;;;9.73;;
71154;SDS011;59375;53.216;5.728;2022-08-19T03:36:34;14.52;;;9.73;;
71154;SDS011;59375;53.216;5.728;2022-08-19T03:39:00;13.57;;;9.95;;
71154;SDS011;59375;53.216;5.728;2022-08-19T03:41:27;11.98;;;9.88;;
71154;SDS011;59375;53.216;5.728;2022-08-19T03:43:57;11.98;;;9.63;;
71154;SDS011;59375;53.216;5.728;2022-08-19T03:46:27;11.07;;;9.48;;
71154;SDS011;59375;53.216;5.728;2022-08-19T03:48:55;11.27;;;9.23;;
71154;SDS011;59375;53.216;5.728;2022-08-19T03:51:23;13.60;;;9.77;;
71154;SDS011;59375;53.216;5.728;2022-08-19T03:53:51;11.57;;;9.75;;
71154;SDS011;59375;53.216;5.728;2022-08-19T03:56:18;13.13;;;9.50;;
71154;SDS011;59375;53.216;5.728;2022-08-19T03:58:45;12.75;;;9.23;;
71154;SDS011;59375;53.216;5.728;2022-08-19T04:01:11;12.40;;;9.65;;
71154;SDS011;59375;53.216;5.728;2022-08-19T04:03:41;13.02;;;9.50;;
71154;SDS011;59375;53.216;5.728;2022-08-19T04:06:10;12.40;;;9.52;;
71154;SDS011;59375;53.216;5.728;2022-08-19T04:08:43;12.30;;;9.60;;
71154;SDS011;59375;53.216;5.728;2022-08-19T04:11:11;11.93;;;9.85;;
71154;SDS011;59375;53.216;5.728;2022-08-19T04:13:39;13.95;;;9.77;;
71154;SDS011;59375;53.216;5.728;2022-08-19T04:16:05;12.57;;;10.20;;
71154;SDS011;59375;53.216;5.728;2022-08-19T04:18:33;11.65;;;9.50;;
71154;SDS011;59375;53.216;5.728;2022-08-19T04:20:59;14.23;;;10.32;;
71154;SDS011;59375;53.216;5.728;2022-08-19T04:23:24;12.52;;;10.15;;
71154;SDS011;59375;53.216;5.728;2022-08-19T04:25:52;15.10;;;10.77;;
71154;SDS011;59375;53.216;5.728;2022-08-19T04:28:17;15.63;;;10.45;;
71154;SDS011;59375;53.216;5.728;2022-08-19T04:30:45;13.30;;;10.82;;
71154;SDS011;59375;53.216;5.728;2022-08-19T04:33:13;13.57;;;10.90;;
71154;SDS011;59375;53.216;5.728;2022-08-19T04:35:43;12.18;;;10.30;;
71154;SDS011;59375;53.216;5.728;2022-08-19T04:38:12;14.93;;;10.65;;
71154;SDS011;59375;53.216;5.728;2022-08-19T04:40:42;14.57;;;11.23;;
71154;SDS011;59375;53.216;5.728;2022-08-19T04:43:31;12.25;;;10.65;;
71154;SDS011;59375;53.216;5.728;2022-08-19T04:45:58;15.80;;;11.88;;
71154;SDS011;59375;53.216;5.728;2022-08-19T04:48:28;18.67;;;11.68;;
71154;SDS011;59375;53.216;5.728;2022-08-19T04:50:57;14.90;;;11.43;;
71154;SDS011;59375;53.216;5.728;2022-08-19T04:53:24;15.05;;;12.02;;
71154;SDS011;59375;53.216;5.728;2022-08-19T04:55:57;14.73;;;11.95;;
71154;SDS011;59375;53.216;5.728;2022-08-19T04:58:24;15.65;;;11.80;;
71154;SDS011;59375;53.216;5.728;2022-08-19T05:00:53;15.63;;;12.02;;
71154;SDS011;59375;53.216;5.728;2022-08-19T05:03:19;15.25;;;11.60;;
71154;SDS011;59375;53.216;5.728;2022-08-19T05:05:46;18.58;;;12.52;;
71154;SDS011;59375;53.216;5.728;2022-08-19T05:08:16;15.90;;;12.07;;
71154;SDS011;59375;53.216;5.728;2022-08-19T05:10:44;14.60;;;11.45;;
71154;SDS011;59375;53.216;5.728;2022-08-19T05:13:16;14.20;;;11.57;;
71154;SDS011;59375;53.216;5.728;2022-08-19T05:15:43;16.48;;;12.57;;
71154;SDS011;59375;53.216;5.728;2022-08-19T05:18:17;15.90;;;11.77;;
71154;SDS011;59375;53.216;5.728;2022-08-19T05:21:05;14.90;;;12.50;;
71154;SDS011;59375;53.216;5.728;2022-08-19T05:23:53;14.85;;;11.85;;
71154;SDS011;59375;53.216;5.728;2022-08-19T05:26:18;16.08;;;11.75;;
71154;SDS011;59375;53.216;5.728;2022-08-19T05:28:44;15.77;;;12.07;;
71154;SDS011;59375;53.216;5.728;2022-08-19T05:31:09;15.20;;;12.07;;
71154;SDS011;59375;53.216;5.728;2022-08-19T05:33:35;16.48;;;12.30;;
71154;SDS011;59375;53.216;5.728;2022-08-19T05:36:01;17.08;;;12.13;;
71154;SDS011;59375;53.216;5.728;2022-08-19T05:38:27;15.68;;;12.80;;
71154;SDS011;59375;53.216;5.728;2022-08-19T05:40:54;16.63;;;13.07;;
71154;SDS011;59375;53.216;5.728;2022-08-19T05:43:20;16.70;;;12.45;;
71154;SDS011;59375;53.216;5.728;2022-08-19T05:45:45;15.75;;;12.85;;
71154;SDS011;59375;53.216;5.728;2022-08-19T05:48:11;14.38;;;10.43;;
71154;SDS011;59375;53.216;5.728;2022-08-19T05:50:39;18.35;;;13.55;;
71154;SDS011;59375;53.216;5.728;2022-08-19T05:53:05;16.88;;;13.52;;
71154;SDS011;59375;53.216;5.728;2022-08-19T05:55:32;15.63;;;12.82;;
71154;SDS011;59375;53.216;5.728;2022-08-19T05:57:57;16.38;;;12.30;;
71154;SDS011;59375;53.216;5.728;2022-08-19T06:00:23;17.10;;;13.73;;
71154;SDS011;59375;53.216;5.728;2022-08-19T06:02:49;18.10;;;13.25;;
71154;SDS011;59375;53.216;5.728;2022-08-19T06:05:16;17.02;;;13.27;;
71154;SDS011;59375;53.216;5.728;2022-08-19T06:07:41;16.20;;;13.50;;
71154;SDS011;59375;53.216;5.728;2022-08-19T06:10:08;16.58;;;12.55;;
71154;SDS011;59375;53.216;5.728;2022-08-19T06:12:36;16.67;;;13.82;;
71154;SDS011;59375;53.216;5.728;2022-08-19T06:15:05;18.20;;;14.27;;
71154;SDS011;59375;53.216;5.728;2022-08-19T06:17:33;17.23;;;13.70;;
71154;SDS011;59375;53.216;5.728;2022-08-19T06:20:00;20.77;;;13.68;;
71154;SDS011;59375;53.216;5.728;2022-08-19T06:22:26;16.17;;;13.18;;
71154;SDS011;59375;53.216;5.728;2022-08-19T06:24:53;17.20;;;14.20;;
71154;SDS011;59375;53.216;5.728;2022-08-19T06:27:20;18.48;;;14.70;;
71154;SDS011;59375;53.216;5.728;2022-08-19T06:29:46;20.35;;;14.45;;
71154;SDS011;59375;53.216;5.728;2022-08-19T06:32:12;19.00;;;14.40;;
71154;SDS011;59375;53.216;5.728;2022-08-19T06:34:41;17.73;;;14.15;;
71154;SDS011;59375;53.216;5.728;2022-08-19T06:37:07;17.40;;;13.43;;
71154;SDS011;59375;53.216;5.728;2022-08-19T06:39:34;17.33;;;13.75;;
71154;SDS011;59375;53.216;5.728;2022-08-19T06:42:03;16.58;;;12.50;;
71154;SDS011;59375;53.216;5.728;2022-08-19T06:44:33;15.25;;;13.05;;
71154;SDS011;59375;53.216;5.728;2022-08-19T06:47:03;16.13;;;13.52;;
71154;SDS011;59375;53.216;5.728;2022-08-19T06:49:30;16.60;;;12.70;;
71154;SDS011;59375;53.216;5.728;2022-08-19T06:51:56;15.98;;;13.93;;
71154;SDS011;59375;53.216;5.728;2022-08-19T06:54:22;16.48;;;14.07;;
71154;SDS011;59375;53.216;5.728;2022-08-19T06:56:48;17.92;;;13.15;;
71154;SDS011;59375;53.216;5.728;2022-08-19T06:59:17;15.00;;;12.30;;
71154;SDS011;59375;53.216;5.728;2022-08-19T07:01:46;15.52;;;12.60;;
71154;SDS011;59375;53.216;5.728;2022-08-19T07:04:18;16.33;;;13.02;;
71154;SDS011;59375;53.216;5.728;2022-08-19T07:06:45;15.25;;;13.02;;
71154;SDS011;59375;53.216;5.728;2022-08-19T07:09:12;16.63;;;13.48;;
71154;SDS011;59375;53.216;5.728;2022-08-19T07:11:43;14.80;;;13.18;;
71154;SDS011;59375;53.216;5.728;2022-08-19T07:14:14;13.73;;;11.43;;
71154;SDS011;59375;53.216;5.728;2022-08-19T07:16:42;14.25;;;12.70;;
71154;SDS011;59375;53.216;5.728;2022-08-19T07:19:09;16.52;;;14.32;;
71154;SDS011;59375;53.216;5.728;2022-08-19T07:21:35;15.60;;;13.48;;
71154;SDS011;59375;53.216;5.728;2022-08-19T07:24:01;15.70;;;13.48;;
71154;SDS011;59375;53.216;5.728;2022-08-19T07:26:27;17.67;;;14.23;;
71154;SDS011;59375;53.216;5.728;2022-08-19T07:28:55;16.77;;;14.10;;
71154;SDS011;59375;53.216;5.728;2022-08-19T07:31:23;15.27;;;13.68;;
71154;SDS011;59375;53.216;5.728;2022-08-19T07:33:51;16.52;;;14.70;;
71154;SDS011;59375;53.216;5.728;2022-08-19T07:36:21;17.05;;;14.82;;
71154;SDS011;59375;53.216;5.728;2022-08-19T07:38:48;16.77;;;15.05;;
71154;SDS011;59375;53.216;5.728;2022-08-19T07:41:17;17.05;;;14.77;;
71154;SDS011;59375;53.216;5.728;2022-08-19T07:43:46;19.02;;;16.73;;
71154;SDS011;59375;53.216;5.728;2022-08-19T07:46:12;15.98;;;14.23;;
71154;SDS011;59375;53.216;5.728;2022-08-19T07:48:38;19.00;;;16.50;;
71154;SDS011;59375;53.216;5.728;2022-08-19T07:51:06;19.35;;;16.83;;
71154;SDS011;59375;53.216;5.728;2022-08-19T07:53:33;21.23;;;17.77;;
71154;SDS011;59375;53.216;5.728;2022-08-19T07:55:59;21.80;;;19.20;;
71154;SDS011;59375;53.216;5.728;2022-08-19T07:58:28;21.10;;;17.77;;
71154;SDS011;59375;53.216;5.728;2022-08-19T08:01:00;21.50;;;19.20;;
71154;SDS011;59375;53.216;5.728;2022-08-19T08:03:27;23.95;;;21.17;;
71154;SDS011;59375;53.216;5.728;2022-08-19T08:06:12;23.75;;;21.17;;
71154;SDS011;59375;53.216;5.728;2022-08-19T08:08:57;24.20;;;19.60;;
71154;SDS011;59375;53.216;5.728;2022-08-19T08:11:43;24.65;;;21.67;;
71154;SDS011;59375;53.216;5.728;2022-08-19T08:14:14;26.50;;;22.02;;
71154;SDS011;59375;53.216;5.728;2022-08-19T08:16:51;26.65;;;23.58;;
71154;SDS011;59375;53.216;5.728;2022-08-19T08:19:18;25.83;;;22.58;;
71154;SDS011;59375;53.216;5.728;2022-08-19T08:21:46;25.13;;;20.73;;
71154;SDS011;59375;53.216;5.728;2022-08-19T08:24:13;25.73;;;20.67;;
71154;SDS011;59375;53.216;5.728;2022-08-19T08:26:39;22.75;;;20.00;;
71154;SDS011;59375;53.216;5.728;2022-08-19T08:29:05;24.75;;;20.80;;
71154;SDS011;59375;53.216;5.728;2022-08-19T08:31:35;25.45;;;20.02;;
71154;SDS011;59375;53.216;5.728;2022-08-19T08:34:01;22.05;;;18.52;;
71154;SDS011;59375;53.216;5.728;2022-08-19T08:36:27;23.23;;;19.17;;
71154;SDS011;59375;53.216;5.728;2022-08-19T08:38:53;22.05;;;18.33;;
71154;SDS011;59375;53.216;5.728;2022-08-19T08:43:56;21.52;;;17.95;;
71154;SDS011;59375;53.216;5.728;2022-08-19T08:46:24;20.10;;;17.42;;
71154;SDS011;59375;53.216;5.728;2022-08-19T08:48:58;21.25;;;17.50;;
71154;SDS011;59375;53.216;5.728;2022-08-19T08:51:34;21.65;;;17.10;;
71154;SDS011;59375;53.216;5.728;2022-08-19T08:54:04;22.58;;;16.45;;
71154;SDS011;59375;53.216;5.728;2022-08-19T08:56:32;18.33;;;16.25;;
71154;SDS011;59375;53.216;5.728;2022-08-19T08:59:05;21.45;;;17.35;;
71154;SDS011;59375;53.216;5.728;2022-08-19T09:01:37;20.70;;;16.42;;
71154;SDS011;59375;53.216;5.728;2022-08-19T09:04:06;18.85;;;13.70;;
71154;SDS011;59375;53.216;5.728;2022-08-19T09:06:40;18.48;;;13.70;;
71154;SDS011;59375;53.216;5.728;2022-08-19T09:09:16;17.17;;;12.93;;
71154;SDS011;59375;53.216;5.728;2022-08-19T09:15:03;24.50;;;18.35;;
71154;SDS011;59375;53.216;5.728;2022-08-19T09:17:32;19.70;;;15.18;;
71154;SDS011;59375;53.216;5.728;2022-08-19T09:22:47;18.85;;;14.55;;
71154;SDS011;59375;53.216;5.728;2022-08-19T09:25:15;19.65;;;15.93;;
71154;SDS011;59375;53.216;5.728;2022-08-19T09:27:43;21.58;;;15.15;;
71154;SDS011;59375;53.216;5.728;2022-08-19T09:30:12;19.83;;;15.20;;
71154;SDS011;59375;53.216;5.728;2022-08-19T09:32:40;19.20;;;14.73;;
71154;SDS011;59375;53.216;5.728;2022-08-19T09:35:07;22.60;;;15.82;;
71154;SDS011;59375;53.216;5.728;2022-08-19T09:37:33;18.02;;;13.68;;
71154;SDS011;59375;53.216;5.728;2022-08-19T09:39:59;16.33;;;12.50;;
71154;SDS011;59375;53.216;5.728;2022-08-19T09:42:24;23.20;;;13.55;;
71154;SDS011;59375;53.216;5.728;2022-08-19T09:44:50;24.08;;;14.70;;
71154;SDS011;59375;53.216;5.728;2022-08-19T09:47:15;18.08;;;13.70;;
71154;SDS011;59375;53.216;5.728;2022-08-19T09:49:41;19.40;;;13.75;;
71154;SDS011;59375;53.216;5.728;2022-08-19T09:52:10;23.02;;;14.25;;
71154;SDS011;59375;53.216;5.728;2022-08-19T09:54:37;16.25;;;11.52;;
71154;SDS011;59375;53.216;5.728;2022-08-19T09:57:04;19.13;;;12.60;;
71154;SDS011;59375;53.216;5.728;2022-08-19T09:59:30;22.48;;;15.57;;
71154;SDS011;59375;53.216;5.728;2022-08-19T10:01:55;18.95;;;11.52;;
71154;SDS011;59375;53.216;5.728;2022-08-19T10:04:21;15.48;;;10.82;;
71154;SDS011;59375;53.216;5.728;2022-08-19T10:06:48;17.23;;;12.43;;
71154;SDS011;59375;53.216;5.728;2022-08-19T10:09:15;21.67;;;12.52;;
71154;SDS011;59375;53.216;5.728;2022-08-19T10:11:43;15.98;;;12.18;;
71154;SDS011;59375;53.216;5.728;2022-08-19T10:14:17;18.48;;;13.30;;
71154;SDS011;59375;53.216;5.728;2022-08-19T10:16:47;17.20;;;12.63;;
71154;SDS011;59375;53.216;5.728;2022-08-19T10:19:12;15.50;;;9.15;;
71154;SDS011;59375;53.216;5.728;2022-08-19T10:21:38;11.25;;;8.43;;
71154;SDS011;59375;53.216;5.728;2022-08-19T10:24:05;13.25;;;8.73;;
71154;SDS011;59375;53.216;5.728;2022-08-19T10:26:35;15.07;;;9.13;;
71154;SDS011;59375;53.216;5.728;2022-08-19T10:29:03;12.00;;;9.32;;
71154;SDS011;59375;53.216;5.728;2022-08-19T10:31:30;14.07;;;8.63;;
71154;SDS011;59375;53.216;5.728;2022-08-19T10:33:58;11.40;;;8.43;;
71154;SDS011;59375;53.216;5.728;2022-08-19T10:36:25;11.45;;;8.90;;
71154;SDS011;59375;53.216;5.728;2022-08-19T10:38:54;11.95;;;8.48;;
71154;SDS011;59375;53.216;5.728;2022-08-19T10:41:28;11.68;;;8.27;;
71154;SDS011;59375;53.216;5.728;2022-08-19T10:43:56;11.30;;;8.20;;
71154;SDS011;59375;53.216;5.728;2022-08-19T10:46:25;14.73;;;8.25;;
71154;SDS011;59375;53.216;5.728;2022-08-19T10:48:52;15.68;;;10.10;;
71154;SDS011;59375;53.216;5.728;2022-08-19T10:51:18;13.82;;;8.48;;
71154;SDS011;59375;53.216;5.728;2022-08-19T10:54:03;13.98;;;9.48;;
71154;SDS011;59375;53.216;5.728;2022-08-19T10:56:30;14.30;;;10.10;;
71154;SDS011;59375;53.216;5.728;2022-08-19T10:59:15;13.35;;;9.07;;
71154;SDS011;59375;53.216;5.728;2022-08-19T11:01:43;10.40;;;8.50;;
71154;SDS011;59375;53.216;5.728;2022-08-19T11:04:10;10.15;;;8.23;;
71154;SDS011;59375;53.216;5.728;2022-08-19T11:06:38;14.27;;;8.77;;
71154;SDS011;59375;53.216;5.728;2022-08-19T11:09:08;15.98;;;9.25;;
71154;SDS011;59375;53.216;5.728;2022-08-19T11:11:36;13.98;;;9.18;;
71154;SDS011;59375;53.216;5.728;2022-08-19T11:14:05;12.63;;;7.20;;
71154;SDS011;59375;53.216;5.728;2022-08-19T11:16:32;8.43;;;5.85;;
71154;SDS011;59375;53.216;5.728;2022-08-19T11:18:58;10.27;;;6.88;;
71154;SDS011;59375;53.216;5.728;2022-08-19T11:21:34;10.85;;;8.00;;
71154;SDS011;59375;53.216;5.728;2022-08-19T11:24:03;11.18;;;8.20;;
71154;SDS011;59375;53.216;5.728;2022-08-19T11:26:34;11.88;;;6.95;;
71154;SDS011;59375;53.216;5.728;2022-08-19T11:29:00;11.85;;;7.95;;
71154;SDS011;59375;53.216;5.728;2022-08-19T11:31:27;11.63;;;8.60;;
71154;SDS011;59375;53.216;5.728;2022-08-19T11:33:58;11.73;;;8.38;;
71154;SDS011;59375;53.216;5.728;2022-08-19T11:36:28;12.18;;;8.02;;
71154;SDS011;59375;53.216;5.728;2022-08-19T11:38:54;13.82;;;8.73;;
71154;SDS011;59375;53.216;5.728;2022-08-19T11:41:21;12.35;;;8.68;;
71154;SDS011;59375;53.216;5.728;2022-08-19T11:43:48;9.88;;;6.85;;
71154;SDS011;59375;53.216;5.728;2022-08-19T11:46:15;11.35;;;6.90;;
71154;SDS011;59375;53.216;5.728;2022-08-19T11:48:41;10.82;;;6.85;;
71154;SDS011;59375;53.216;5.728;2022-08-19T11:51:18;10.45;;;5.90;;
71154;SDS011;59375;53.216;5.728;2022-08-19T11:53:46;8.40;;;5.78;;
71154;SDS011;59375;53.216;5.728;2022-08-19T11:56:12;8.40;;;5.45;;
71154;SDS011;59375;53.216;5.728;2022-08-19T11:58:38;11.90;;;5.88;;
71154;SDS011;59375;53.216;5.728;2022-08-19T12:01:07;10.10;;;5.97;;
71154;SDS011;59375;53.216;5.728;2022-08-19T12:03:34;11.90;;;6.82;;
71154;SDS011;59375;53.216;5.728;2022-08-19T12:06:07;9.38;;;6.22;;
71154;SDS011;59375;53.216;5.728;2022-08-19T12:08:34;11.30;;;6.82;;
71154;SDS011;59375;53.216;5.728;2022-08-19T12:11:00;12.27;;;8.07;;
71154;SDS011;59375;53.216;5.728;2022-08-19T12:13:31;8.95;;;6.88;;
71154;SDS011;59375;53.216;5.728;2022-08-19T12:15:57;11.45;;;8.32;;
71154;SDS011;59375;53.216;5.728;2022-08-19T12:18:23;12.88;;;7.53;;
71154;SDS011;59375;53.216;5.728;2022-08-19T12:20:50;11.77;;;7.55;;
71154;SDS011;59375;53.216;5.728;2022-08-19T12:23:17;13.32;;;7.85;;
71154;SDS011;59375;53.216;5.728;2022-08-19T12:25:44;11.00;;;7.20;;
71154;SDS011;59375;53.216;5.728;2022-08-19T12:28:14;13.07;;;6.70;;
71154;SDS011;59375;53.216;5.728;2022-08-19T12:30:41;12.63;;;8.02;;
71154;SDS011;59375;53.216;5.728;2022-08-19T12:33:06;10.95;;;7.80;;
71154;SDS011;59375;53.216;5.728;2022-08-19T12:35:32;13.27;;;8.85;;
71154;SDS011;59375;53.216;5.728;2022-08-19T12:37:58;12.25;;;9.45;;
71154;SDS011;59375;53.216;5.728;2022-08-19T12:40:24;11.90;;;8.70;;
71154;SDS011;59375;53.216;5.728;2022-08-19T12:42:51;11.93;;;8.10;;
71154;SDS011;59375;53.216;5.728;2022-08-19T12:45:17;10.95;;;8.35;;
71154;SDS011;59375;53.216;5.728;2022-08-19T12:47:42;16.90;;;9.65;;
71154;SDS011;59375;53.216;5.728;2022-08-19T12:50:08;13.93;;;9.68;;
71154;SDS011;59375;53.216;5.728;2022-08-19T12:52:35;11.35;;;8.43;;
71154;SDS011;59375;53.216;5.728;2022-08-19T12:55:06;11.60;;;8.68;;
71154;SDS011;59375;53.216;5.728;2022-08-19T12:57:33;12.20;;;8.90;;
71154;SDS011;59375;53.216;5.728;2022-08-19T13:00:05;12.70;;;8.88;;
71154;SDS011;59375;53.216;5.728;2022-08-19T13:02:40;11.93;;;7.80;;
71154;SDS011;59375;53.216;5.728;2022-08-19T13:05:09;11.38;;;8.18;;
71154;SDS011;59375;53.216;5.728;2022-08-19T13:07:37;11.35;;;7.75;;
71154;SDS011;59375;53.216;5.728;2022-08-19T13:10:05;13.35;;;8.15;;
71154;SDS011;59375;53.216;5.728;2022-08-19T13:12:31;12.10;;;8.10;;
71154;SDS011;59375;53.216;5.728;2022-08-19T13:14:57;12.85;;;10.13;;
71154;SDS011;59375;53.216;5.728;2022-08-19T13:17:22;14.48;;;9.65;;
71154;SDS011;59375;53.216;5.728;2022-08-19T13:19:48;10.32;;;7.60;;
71154;SDS011;59375;53.216;5.728;2022-08-19T13:22:14;10.70;;;8.32;;
71154;SDS011;59375;53.216;5.728;2022-08-19T13:24:39;12.63;;;8.65;;
71154;SDS011;59375;53.216;5.728;2022-08-19T13:27:05;12.23;;;8.85;;
71154;SDS011;59375;53.216;5.728;2022-08-19T13:29:31;10.50;;;8.27;;
71154;SDS011;59375;53.216;5.728;2022-08-19T13:32:15;12.98;;;8.77;;
71154;SDS011;59375;53.216;5.728;2022-08-19T13:35:00;9.70;;;7.30;;
71154;SDS011;59375;53.216;5.728;2022-08-19T13:37:26;10.10;;;6.60;;
71154;SDS011;59375;53.216;5.728;2022-08-19T13:40:17;10.13;;;7.65;;
71154;SDS011;59375;53.216;5.728;2022-08-19T13:42:47;10.02;;;7.32;;
71154;SDS011;59375;53.216;5.728;2022-08-19T13:45:15;10.80;;;7.80;;
71154;SDS011;59375;53.216;5.728;2022-08-19T13:47:44;10.50;;;6.53;;
71154;SDS011;59375;53.216;5.728;2022-08-19T13:50:15;10.73;;;7.68;;
71154;SDS011;59375;53.216;5.728;2022-08-19T13:52:43;12.88;;;7.63;;
71154;SDS011;59375;53.216;5.728;2022-08-19T13:55:09;7.05;;;4.85;;
71154;SDS011;59375;53.216;5.728;2022-08-19T13:57:36;6.65;;;4.38;;
71154;SDS011;59375;53.216;5.728;2022-08-19T14:00:05;8.65;;;4.88;;
71154;SDS011;59375;53.216;5.728;2022-08-19T14:02:35;8.40;;;6.22;;
71154;SDS011;59375;53.216;5.728;2022-08-19T14:05:03;8.60;;;5.55;;
71154;SDS011;59375;53.216;5.728;2022-08-19T14:07:29;8.75;;;5.30;;
71154;SDS011;59375;53.216;5.728;2022-08-19T14:09:55;9.35;;;7.15;;
71154;SDS011;59375;53.216;5.728;2022-08-19T14:12:21;11.88;;;6.82;;
71154;SDS011;59375;53.216;5.728;2022-08-19T14:14:47;8.98;;;6.25;;
71154;SDS011;59375;53.216;5.728;2022-08-19T14:17:12;6.80;;;4.00;;
71154;SDS011;59375;53.216;5.728;2022-08-19T14:19:38;6.70;;;3.30;;
71154;SDS011;59375;53.216;5.728;2022-08-19T14:22:03;7.00;;;5.20;;
71154;SDS011;59375;53.216;5.728;2022-08-19T14:24:30;7.35;;;4.60;;
71154;SDS011;59375;53.216;5.728;2022-08-19T14:26:57;8.13;;;4.20;;
71154;SDS011;59375;53.216;5.728;2022-08-19T14:29:23;8.00;;;4.50;;
71154;SDS011;59375;53.216;5.728;2022-08-19T14:31:49;5.35;;;3.50;;
71154;SDS011;59375;53.216;5.728;2022-08-19T14:34:15;7.47;;;4.53;;
71154;SDS011;59375;53.216;5.728;2022-08-19T14:36:40;5.57;;;4.10;;
71154;SDS011;59375;53.216;5.728;2022-08-19T14:39:06;7.55;;;4.40;;
71154;SDS011;59375;53.216;5.728;2022-08-19T14:41:34;6.38;;;4.47;;
71154;SDS011;59375;53.216;5.728;2022-08-19T14:43:59;7.43;;;4.97;;
71154;SDS011;59375;53.216;5.728;2022-08-19T14:46:26;6.85;;;5.28;;